createdAt,value
2019-02-10T00:00:43.342Z,97744.77
2019-02-10T00:03:14.975Z,97746.05
2019-02-10T00:05:46.550Z,97750.42
2019-02-10T00:08:18.038Z,97748.72
2019-02-10T00:10:49.561Z,97756.58
2019-02-10T00:13:32.583Z,97762.23
2019-02-10T00:16:12.281Z,97763.12
2019-02-10T00:18:43.849Z,97769.90
2019-02-10T00:21:16.661Z,97768.25
2019-02-10T00:23:48.152Z,97766.05
2019-02-10T00:26:19.713Z,97766.32
2019-02-10T00:28:51.262Z,97765.05
2019-02-10T00:31:24.127Z,97768.59
2019-02-10T00:33:55.730Z,97769.47
2019-02-10T00:36:32.944Z,97767.13
2019-02-10T00:39:05.222Z,97772.53
2019-02-10T00:41:36.832Z,97770.60
2019-02-10T00:44:08.466Z,97769.00
2019-02-10T00:46:40.026Z,97770.64
2019-02-10T00:49:11.629Z,97768.92
2019-02-10T00:51:43.208Z,97764.87
2019-02-10T00:54:16.260Z,97764.34
2019-02-10T00:56:47.714Z,97762.33
2019-02-10T00:59:19.407Z,97754.89
2019-02-10T01:01:51.030Z,97750.17
2019-02-10T01:04:22.725Z,97753.89
2019-02-10T01:06:54.595Z,97749.61
2019-02-10T01:09:26.253Z,97750.17
2019-02-10T01:11:57.697Z,97751.22
2019-02-10T01:14:29.388Z,97745.37
2019-02-10T01:17:01.045Z,97736.91
2019-02-10T01:19:32.607Z,97727.92
2019-02-10T01:22:04.177Z,97725.95
2019-02-10T01:24:35.797Z,97727.08
2019-02-10T01:27:07.495Z,97720.34
2019-02-10T01:29:39.126Z,97711.83
2019-02-10T01:32:10.843Z,97704.22
2019-02-10T01:34:42.245Z,97704.53
2019-02-10T01:37:13.817Z,97714.23
2019-02-10T01:39:45.352Z,97715.41
2019-02-10T01:42:17.045Z,97707.27
2019-02-10T01:44:48.660Z,97711.50
2019-02-10T01:47:20.279Z,97704.41
2019-02-10T01:49:51.863Z,97705.73
2019-02-10T01:52:23.641Z,97691.42
2019-02-10T01:54:55.200Z,97687.14
2019-02-10T01:57:26.741Z,97677.73
2019-02-10T01:59:58.381Z,97669.81
2019-02-10T02:02:29.952Z,97664.31
2019-02-10T02:05:01.837Z,97661.71
2019-02-10T02:07:33.444Z,97669.20
2019-02-10T02:10:05.342Z,97670.98
2019-02-10T02:12:36.943Z,97664.88
2019-02-10T02:15:10.975Z,97667.32
2019-02-10T02:17:42.483Z,97657.11
2019-02-10T02:20:14.385Z,97651.09
2019-02-10T02:22:45.983Z,97646.80
2019-02-10T02:25:17.582Z,97646.48
2019-02-10T02:27:49.255Z,97648.27
2019-02-10T02:30:20.793Z,97641.07
2019-02-10T02:32:52.426Z,97641.03
2019-02-10T02:35:23.955Z,97657.33
2019-02-10T02:37:55.540Z,97658.45
2019-02-10T02:40:27.063Z,97668.20
2019-02-10T02:42:58.717Z,97678.73
2019-02-10T02:45:30.225Z,97685.09
2019-02-10T02:48:01.915Z,97678.23
2019-02-10T02:50:33.463Z,97679.33
2019-02-10T02:53:05.132Z,97680.27
2019-02-10T02:55:36.643Z,97693.50
2019-02-10T02:58:08.258Z,97702.89
2019-02-10T03:00:39.854Z,97701.85
2019-02-10T03:03:11.338Z,97690.47
2019-02-10T03:05:44.036Z,97679.04
2019-02-10T03:08:15.572Z,97683.33
2019-02-10T03:10:47.155Z,97683.17
2019-02-10T03:13:18.709Z,97680.63
2019-02-10T03:15:50.597Z,97674.66
2019-02-10T03:18:22.184Z,97676.64
2019-02-10T03:20:53.780Z,97684.13
2019-02-10T03:23:25.245Z,97684.06
2019-02-10T03:25:56.702Z,97677.66
2019-02-10T03:28:28.126Z,97674.70
2019-02-10T03:30:59.745Z,97683.59
2019-02-10T03:33:31.251Z,97683.81
2019-02-10T03:36:02.891Z,97685.30
2019-02-10T03:38:34.434Z,97698.53
2019-02-10T03:41:06.102Z,97709.09
2019-02-10T03:43:37.619Z,97697.59
2019-02-10T03:46:09.111Z,97698.81
2019-02-10T03:48:40.624Z,97705.23
2019-02-10T03:51:12.208Z,97703.09
2019-02-10T03:53:43.947Z,97703.04
2019-02-10T03:56:15.583Z,97704.43
2019-02-10T03:58:50.084Z,97710.40
2019-02-10T04:01:22.285Z,97715.11
2019-02-10T04:03:53.954Z,97721.36
2019-02-10T04:06:25.606Z,97717.55
2019-02-10T04:08:59.878Z,97720.63
2019-02-10T04:11:31.519Z,97732.06
2019-02-10T04:14:03.212Z,97736.81
2019-02-10T04:16:34.832Z,97743.88
2019-02-10T04:19:06.493Z,97744.16
2019-02-10T04:21:38.216Z,97729.79
2019-02-10T04:24:09.807Z,97732.86
2019-02-10T04:26:41.375Z,97731.44
2019-02-10T04:29:12.953Z,97731.00
2019-02-10T04:31:44.563Z,97730.73
2019-02-10T04:34:16.173Z,97737.78
2019-02-10T04:36:49.133Z,97731.43
2019-02-10T04:39:20.790Z,97728.56
2019-02-10T04:41:52.290Z,97737.09
2019-02-10T04:44:23.938Z,97724.44
2019-02-10T04:46:55.432Z,97733.28
2019-02-10T04:49:27.099Z,97736.29
2019-02-10T04:51:58.746Z,97738.41
2019-02-10T04:54:30.359Z,97731.36
2019-02-10T04:57:02.039Z,97738.52
2019-02-10T04:59:34.188Z,97745.66
2019-02-10T05:02:05.839Z,97754.69
2019-02-10T05:04:37.500Z,97750.61
2019-02-10T05:07:09.033Z,97747.97
2019-02-10T05:09:40.625Z,97746.59
2019-02-10T05:12:12.134Z,97740.95
2019-02-10T05:14:43.836Z,97755.41
2019-02-10T05:17:15.382Z,97762.66
2019-02-10T05:19:47.060Z,97762.70
2019-02-10T05:22:18.526Z,97763.45
2019-02-10T05:24:50.094Z,97769.86
2019-02-10T05:27:22.966Z,97776.68
2019-02-10T05:29:56.887Z,97781.84
2019-02-10T05:32:28.470Z,97774.61
2019-02-10T05:35:00.170Z,97771.93
2019-02-10T05:37:31.824Z,97771.36
2019-02-10T05:40:03.404Z,97774.17
2019-02-10T05:42:34.973Z,97772.91
2019-02-10T05:45:06.682Z,97783.41
2019-02-10T05:47:38.262Z,97784.25
2019-02-10T05:50:09.788Z,97780.67
2019-02-10T05:52:41.334Z,97778.13
2019-02-10T05:55:12.952Z,97786.56
2019-02-10T05:57:44.455Z,97784.02
2019-02-10T06:00:16.566Z,97790.64
2019-02-10T06:02:48.152Z,97782.95
2019-02-10T06:05:22.492Z,97784.51
2019-02-10T06:07:54.075Z,97784.34
2019-02-10T06:10:25.597Z,97780.80
2019-02-10T06:12:57.132Z,97785.22
2019-02-10T06:15:28.709Z,97788.87
2019-02-10T06:18:00.359Z,97790.08
2019-02-10T06:20:31.966Z,97777.69
2019-02-10T06:23:05.763Z,97780.91
2019-02-10T06:25:37.237Z,97778.42
2019-02-10T06:28:08.883Z,97780.67
2019-02-10T06:30:40.395Z,97785.48
2019-02-10T06:33:11.885Z,97790.06
2019-02-10T06:35:43.562Z,97788.13
2019-02-10T06:38:22.094Z,97786.78
2019-02-10T06:40:48.465Z,97787.02
2019-02-10T06:43:23.292Z,97795.00
2019-02-10T06:45:55.045Z,97798.94
2019-02-10T06:48:28.477Z,97795.54
2019-02-10T06:51:00.028Z,97803.30
2019-02-10T06:53:34.754Z,97805.45
2019-02-10T06:56:07.636Z,97802.61
2019-02-10T06:58:39.197Z,97796.86
2019-02-10T07:01:16.608Z,97796.94
2019-02-10T07:03:56.551Z,97796.55
2019-02-10T07:06:28.193Z,97792.84
2019-02-10T07:09:01.487Z,97793.39
2019-02-10T07:11:34.125Z,97797.98
2019-02-10T07:14:07.187Z,97801.14
2019-02-10T07:16:58.188Z,97803.43
2019-02-10T07:20:12.114Z,97800.20
2019-02-10T07:23:21.221Z,97801.79
2019-02-10T07:25:57.468Z,97812.96
2019-02-10T07:28:51.188Z,97808.52
2019-02-10T07:31:37.070Z,97811.16
2019-02-10T07:34:48.041Z,97813.80
2019-02-10T07:37:45.347Z,97819.19
2019-02-10T07:41:05.159Z,97819.84
2019-02-10T07:44:08.819Z,97822.48
2019-02-10T07:47:26.697Z,97822.59
2019-02-10T07:50:50.797Z,97828.92
2019-02-10T07:53:52.835Z,97830.09
2019-02-10T07:57:05.082Z,97828.88
2019-02-10T08:00:03.429Z,97832.44
2019-02-10T08:03:19.233Z,97830.34
2019-02-10T08:06:27.762Z,97832.41
2019-02-10T08:09:32.833Z,97826.58
2019-02-10T08:13:09.072Z,97828.30
2019-02-10T08:16:05.682Z,97830.82
2019-02-10T08:19:06.843Z,97834.84
2019-02-10T08:22:34.173Z,97835.39
2019-02-10T08:25:59.212Z,97840.23
2019-02-10T08:28:50.135Z,97840.48
2019-02-10T08:31:51.206Z,97842.14
2019-02-10T08:34:37.172Z,97842.19
2019-02-10T08:37:42.982Z,97841.30
2019-02-10T08:40:38.185Z,97841.86
2019-02-10T08:44:01.712Z,97842.83
2019-02-10T08:47:09.487Z,97838.20
2019-02-10T08:50:24.508Z,97834.61
2019-02-10T08:53:00.559Z,97839.70
2019-02-10T08:55:33.602Z,97835.86
2019-02-10T08:58:05.158Z,97833.08
2019-02-10T09:00:36.827Z,97837.61
2019-02-10T09:03:08.456Z,97834.59
2019-02-10T09:05:40.073Z,97840.69
2019-02-10T09:08:11.702Z,97845.00
2019-02-10T09:10:45.294Z,97841.52
2019-02-10T09:13:16.935Z,97837.17
2019-02-10T09:15:48.467Z,97834.83
2019-02-10T09:18:22.703Z,97840.03
2019-02-10T09:20:54.567Z,97840.35
2019-02-10T09:23:26.075Z,97841.20
2019-02-10T09:25:57.648Z,97854.63
2019-02-10T09:28:29.293Z,97847.75
2019-02-10T09:31:02.007Z,97844.00
2019-02-10T09:33:35.057Z,97851.66
2019-02-10T09:36:06.951Z,97851.98
2019-02-10T09:38:38.978Z,97851.09
2019-02-10T09:41:10.717Z,97853.28
2019-02-10T09:43:43.898Z,97854.73
2019-02-10T09:46:15.514Z,97847.04
2019-02-10T09:48:47.148Z,97852.27
2019-02-10T09:51:18.758Z,97846.06
2019-02-10T09:53:50.445Z,97847.80
2019-02-10T09:56:25.048Z,97848.73
2019-02-10T09:58:56.682Z,97846.31
2019-02-10T10:01:28.184Z,97841.50
2019-02-10T10:03:59.807Z,97842.16
2019-02-10T10:06:31.505Z,97845.45
2019-02-10T10:09:05.554Z,97832.90
2019-02-10T10:11:37.044Z,97836.10
2019-02-10T10:14:08.501Z,97837.44
2019-02-10T10:16:40.056Z,97824.12
2019-02-10T10:19:11.556Z,97815.93
2019-02-10T10:21:43.284Z,97819.63
2019-02-10T10:24:14.775Z,97811.58
2019-02-10T10:26:46.325Z,97809.92
2019-02-10T10:29:17.796Z,97812.98
2019-02-10T10:31:49.436Z,97805.67
2019-02-10T10:34:20.902Z,97812.30
2019-02-10T10:36:52.491Z,97803.92
2019-02-10T10:39:27.380Z,97800.92
2019-02-10T10:41:57.240Z,97798.05
2019-02-10T10:44:29.976Z,97796.52
2019-02-10T10:47:01.505Z,97791.52
2019-02-10T10:49:33.086Z,97789.20
2019-02-10T10:52:04.849Z,97790.14
2019-02-10T10:57:06.987Z,97761.90
2019-02-10T10:59:40.832Z,97761.90
2019-02-10T11:02:12.436Z,97767.01
2019-02-10T11:04:44.032Z,97765.00
2019-02-10T11:07:15.522Z,97769.09
2019-02-10T11:09:47.066Z,97761.38
2019-02-10T11:12:18.669Z,97766.80
2019-02-10T11:14:50.169Z,97756.14
2019-02-10T11:17:21.825Z,97750.64
2019-02-10T11:19:53.375Z,97754.11
2019-02-10T11:22:25.028Z,97745.70
2019-02-10T11:24:56.435Z,97739.53
2019-02-10T11:27:28.078Z,97738.81
2019-02-10T11:29:59.550Z,97738.81
2019-02-10T11:32:36.906Z,97731.81
2019-02-10T11:35:08.664Z,97734.08
2019-02-10T11:37:40.216Z,97734.80
2019-02-10T11:40:12.145Z,97733.88
2019-02-10T11:42:43.744Z,97733.88
2019-02-10T11:45:15.276Z,97721.83
2019-02-10T11:47:46.775Z,97724.80
2019-02-10T11:50:18.252Z,97714.73
2019-02-10T11:52:49.764Z,97718.05
2019-02-10T11:55:21.265Z,97713.20
2019-02-10T11:57:52.766Z,97717.74
2019-02-10T12:00:25.446Z,97718.45
2019-02-10T12:02:56.909Z,97721.95
2019-02-10T12:05:28.437Z,97711.23
2019-02-10T12:08:00.106Z,97709.22
2019-02-10T12:10:31.784Z,97706.37
2019-02-10T12:13:03.215Z,97705.78
2019-02-10T12:15:35.092Z,97702.86
2019-02-10T12:18:06.628Z,97701.00
2019-02-10T12:20:38.268Z,97694.27
2019-02-10T12:23:09.947Z,97685.23
2019-02-10T12:25:41.685Z,97680.83
2019-02-10T12:28:13.253Z,97685.81
2019-02-10T12:30:44.914Z,97685.27
2019-02-10T12:33:16.322Z,97682.50
2019-02-10T12:35:47.861Z,97674.94
2019-02-10T12:38:19.512Z,97677.51
2019-02-10T12:40:51.234Z,97684.22
2019-02-10T12:43:22.827Z,97687.16
2019-02-10T12:45:54.477Z,97683.63
2019-02-10T12:48:26.087Z,97677.08
2019-02-10T12:50:57.715Z,97672.02
2019-02-10T12:53:29.417Z,97671.54
2019-02-10T12:56:01.106Z,97669.48
2019-02-10T12:58:32.678Z,97674.25
2019-02-10T13:01:05.296Z,97667.74
2019-02-10T13:03:36.984Z,97671.41
2019-02-10T13:06:08.458Z,97668.79
2019-02-10T13:08:40.134Z,97665.61
2019-02-10T13:11:11.576Z,97670.22
2019-02-10T13:13:43.154Z,97674.70
2019-02-10T13:16:17.597Z,97669.05
2019-02-10T13:18:49.200Z,97663.27
2019-02-10T13:21:20.650Z,97658.67
2019-02-10T13:23:52.417Z,97660.30
2019-02-10T13:26:23.842Z,97664.89
2019-02-10T13:28:55.522Z,97666.34
2019-02-10T13:31:26.952Z,97668.87
2019-02-10T13:33:58.617Z,97658.42
2019-02-10T13:36:30.227Z,97660.54
2019-02-10T13:39:01.819Z,97660.08
2019-02-10T13:41:37.833Z,97657.40
2019-02-10T13:44:09.486Z,97663.22
2019-02-10T13:46:41.102Z,97646.31
2019-02-10T13:49:12.571Z,97647.97
2019-02-10T13:51:44.207Z,97646.47
2019-02-10T13:54:17.132Z,97647.88
2019-02-10T13:56:48.706Z,97648.69
2019-02-10T13:59:20.319Z,97651.93
2019-02-10T14:01:51.816Z,97645.56
2019-02-10T14:04:23.451Z,97646.56
2019-02-10T14:06:54.846Z,97641.59
2019-02-10T14:09:26.483Z,97642.23
2019-02-10T14:11:57.968Z,97647.48
2019-02-10T14:14:29.586Z,97643.91
2019-02-10T14:17:01.923Z,97642.26
2019-02-10T14:19:34.066Z,97637.13
2019-02-10T14:22:05.700Z,97639.05
2019-02-10T14:24:37.365Z,97629.09
2019-02-10T14:27:08.909Z,97631.66
2019-02-10T14:29:43.628Z,97630.07
2019-02-10T14:32:15.135Z,97622.37
2019-02-10T14:34:46.788Z,97624.87
2019-02-10T14:37:18.558Z,97623.77
2019-02-10T14:39:50.278Z,97617.97
2019-02-10T14:42:21.794Z,97621.58
2019-02-10T14:44:53.277Z,97618.73
2019-02-10T14:47:24.781Z,97612.52
2019-02-10T14:49:56.388Z,97609.12
2019-02-10T14:52:30.982Z,97612.95
2019-02-10T14:55:02.466Z,97617.12
2019-02-10T14:57:34.003Z,97609.08
2019-02-10T15:00:06.294Z,97605.89
2019-02-10T15:02:38.904Z,97600.63
2019-02-10T15:05:10.579Z,97607.33
2019-02-10T15:07:42.207Z,97613.76
2019-02-10T15:10:14.750Z,97608.19
2019-02-10T15:12:46.467Z,97603.69
2019-02-10T15:15:18.143Z,97608.80
2019-02-10T15:17:50.007Z,97603.52
2019-02-10T15:20:21.497Z,97599.57
2019-02-10T15:22:53.035Z,97605.96
2019-02-10T15:25:24.781Z,97596.59
2019-02-10T15:27:56.964Z,97595.42
2019-02-10T15:30:28.519Z,97606.72
2019-02-10T15:33:00.006Z,97602.99
2019-02-10T15:35:31.618Z,97601.11
2019-02-10T15:38:03.178Z,97598.52
2019-02-10T15:40:34.633Z,97603.27
2019-02-10T15:43:06.187Z,97604.83
2019-02-10T15:45:37.708Z,97604.32
2019-02-10T15:48:09.574Z,97602.81
2019-02-10T15:50:41.465Z,97608.83
2019-02-10T15:53:13.104Z,97602.21
2019-02-10T15:55:44.708Z,97605.55
2019-02-10T15:58:16.195Z,97606.20
2019-02-10T16:00:47.858Z,97598.75
2019-02-10T16:03:19.559Z,97603.05
2019-02-10T16:05:51.278Z,97608.30
2019-02-10T16:08:22.863Z,97599.83
2019-02-10T16:10:58.203Z,97597.17
2019-02-10T16:13:27.687Z,97605.27
2019-02-10T16:15:59.108Z,97602.10
2019-02-10T16:18:30.704Z,97604.22
2019-02-10T16:21:02.181Z,97594.94
2019-02-10T16:23:33.768Z,97602.98
2019-02-10T16:26:05.265Z,97604.26
2019-02-10T16:28:36.874Z,97607.87
2019-02-10T16:31:08.499Z,97605.16
2019-02-10T16:33:40.085Z,97600.59
2019-02-10T16:36:11.571Z,97596.05
2019-02-10T16:38:43.328Z,97598.82
2019-02-10T16:41:14.892Z,97597.95
2019-02-10T16:43:46.435Z,97600.83
2019-02-10T16:46:17.857Z,97599.77
2019-02-10T16:48:50.725Z,97596.59
2019-02-10T16:51:22.364Z,97596.31
2019-02-10T16:53:55.959Z,97600.30
2019-02-10T16:56:27.206Z,97603.69
2019-02-10T16:58:58.872Z,97593.58
2019-02-10T17:01:30.393Z,97600.73
2019-02-10T17:04:01.957Z,97601.45
2019-02-10T17:06:33.509Z,97607.73
2019-02-10T17:09:05.876Z,97605.28
2019-02-10T17:11:38.458Z,97601.95
2019-02-10T17:14:10.013Z,97605.50
2019-02-10T17:16:41.644Z,97607.83
2019-02-10T17:19:13.231Z,97607.73
2019-02-10T17:21:44.628Z,97595.20
2019-02-10T17:24:16.199Z,97595.14
2019-02-10T17:26:47.739Z,97601.08
2019-02-10T17:29:20.955Z,97605.56
2019-02-10T17:31:52.483Z,97596.62
2019-02-10T17:34:24.061Z,97596.01
2019-02-10T17:36:57.036Z,97593.52
2019-02-10T17:39:28.600Z,97595.70
2019-02-10T17:42:00.197Z,97600.05
2019-02-10T17:44:31.847Z,97594.14
2019-02-10T17:47:03.436Z,97585.23
2019-02-10T17:49:34.864Z,97595.88
2019-02-10T17:52:06.318Z,97590.50
2019-02-10T17:54:37.884Z,97588.78
2019-02-10T17:57:09.348Z,97590.47
2019-02-10T17:59:40.907Z,97582.66
2019-02-10T18:02:14.962Z,97586.42
2019-02-10T18:04:46.581Z,97580.97
2019-02-10T18:07:18.193Z,97572.61
2019-02-10T18:09:49.816Z,97578.92
2019-02-10T18:12:22.698Z,97578.14
2019-02-10T18:15:06.694Z,97575.94
2019-02-10T18:18:03.157Z,97584.89
2019-02-10T18:20:39.391Z,97589.72
2019-02-10T18:23:32.556Z,97580.78
2019-02-10T18:26:22.788Z,97567.53
2019-02-10T18:29:19.299Z,97578.20
2019-02-10T18:32:01.736Z,97574.41
2019-02-10T18:34:54.967Z,97567.59
2019-02-10T18:37:45.206Z,97572.91
2019-02-10T18:40:38.299Z,97566.47
2019-02-10T18:43:29.141Z,97567.38
2019-02-10T18:46:07.096Z,97564.08
2019-02-10T18:49:00.438Z,97561.98
2019-02-10T18:51:49.437Z,97552.94
2019-02-10T18:54:39.649Z,97552.19
2019-02-10T18:57:28.600Z,97545.31
2019-02-10T19:00:30.820Z,97544.22
2019-02-10T19:03:21.195Z,97549.33
2019-02-10T19:06:01.748Z,97546.22
2019-02-10T19:08:55.135Z,97550.69
2019-02-10T19:11:36.103Z,97542.95
2019-02-10T19:14:35.562Z,97533.02
2019-02-10T19:17:13.240Z,97534.70
2019-02-10T19:19:56.118Z,97527.61
2019-02-10T19:22:45.997Z,97527.27
2019-02-10T19:25:36.155Z,97519.95
2019-02-10T19:28:29.514Z,97521.16
2019-02-10T19:31:29.929Z,97516.56
2019-02-10T19:34:32.415Z,97513.67
2019-02-10T19:37:22.759Z,97517.84
2019-02-10T19:40:03.627Z,97514.41
2019-02-10T19:42:44.867Z,97508.47
2019-02-10T19:45:51.859Z,97495.71
2019-02-10T19:48:58.309Z,97496.74
2019-02-10T19:51:52.514Z,97493.82
2019-02-10T19:54:41.347Z,97486.51
2019-02-10T19:57:49.814Z,97490.98
2019-02-10T20:00:39.588Z,97490.81
2019-02-10T20:03:22.770Z,97483.27
2019-02-10T20:06:15.858Z,97478.16
2019-02-10T20:09:18.387Z,97470.17
2019-02-10T20:12:14.487Z,97472.22
2019-02-10T20:14:59.630Z,97476.89
2019-02-10T20:17:50.135Z,97470.78
2019-02-10T20:20:36.618Z,97468.56
2019-02-10T20:23:32.595Z,97469.74
2019-02-10T20:26:22.788Z,97465.84
2019-02-10T20:29:16.088Z,97465.52
2019-02-10T20:32:06.260Z,97459.12
2019-02-10T20:35:02.775Z,97457.86
2019-02-10T20:37:51.695Z,97461.08
2019-02-10T20:40:40.595Z,97468.67
2019-02-10T20:43:32.665Z,97461.45
2019-02-10T20:46:21.539Z,97461.92
2019-02-10T20:49:16.528Z,97461.45
2019-02-10T20:52:21.958Z,97460.44
2019-02-10T20:55:02.718Z,97450.23
2019-02-10T20:57:55.842Z,97445.86
2019-02-10T21:00:44.990Z,97438.56
2019-02-10T21:03:35.328Z,97429.63
2019-02-10T21:06:24.145Z,97432.08
2019-02-10T21:09:13.236Z,97422.47
2019-02-10T21:12:20.378Z,97420.34
2019-02-10T21:15:22.343Z,97414.73
2019-02-10T21:18:20.797Z,97413.12
2019-02-10T21:21:20.175Z,97401.86
2019-02-10T21:24:28.467Z,97403.47
2019-02-10T21:27:29.408Z,97398.80
2019-02-10T21:30:22.613Z,97400.34
2019-02-10T21:33:11.173Z,97397.52
2019-02-10T21:36:10.868Z,97398.29
2019-02-10T21:38:51.774Z,97399.12
2019-02-10T21:41:41.646Z,97388.45
2019-02-10T21:44:25.086Z,97387.16
2019-02-10T21:47:01.605Z,97385.02
2019-02-10T21:49:33.268Z,97380.48
2019-02-10T21:52:04.773Z,97380.02
2019-02-10T21:54:36.279Z,97371.08
2019-02-10T21:57:07.858Z,97375.92
2019-02-10T21:59:39.444Z,97374.14
2019-02-10T22:02:12.421Z,97371.48
2019-02-10T22:04:44.025Z,97373.52
2019-02-10T22:07:17.748Z,97373.52
2019-02-10T22:09:49.300Z,97370.71
2019-02-10T22:12:20.759Z,97368.41
2019-02-10T22:14:52.264Z,97369.43
2019-02-10T22:17:23.830Z,97358.19
2019-02-10T22:19:55.271Z,97360.93
2019-02-10T22:22:26.849Z,97350.27
2019-02-10T22:24:58.383Z,97343.89
2019-02-10T22:27:29.841Z,97348.16
2019-02-10T22:30:01.356Z,97334.30
2019-02-10T22:32:32.868Z,97335.06
2019-02-10T22:35:05.432Z,97327.22
2019-02-10T22:37:37.024Z,97325.72
2019-02-10T22:40:09.066Z,97323.94
2019-02-10T22:42:45.784Z,97315.98
2019-02-10T22:45:14.031Z,97310.04
2019-02-10T22:47:45.499Z,97306.86
2019-02-10T22:50:17.044Z,97299.68
2019-02-10T22:52:49.628Z,97297.64
2019-02-10T22:55:21.110Z,97287.17
2019-02-10T22:57:59.570Z,97291.40
2019-02-10T23:00:55.702Z,97291.91
2019-02-10T23:03:27.342Z,97284.80
2019-02-10T23:05:58.998Z,97276.88
2019-02-10T23:08:30.610Z,97266.93
2019-02-10T23:11:02.238Z,97271.84
2019-02-10T23:13:33.841Z,97275.96
2019-02-10T23:16:05.377Z,97272.47
2019-02-10T23:18:37.131Z,97271.33
2019-02-10T23:21:08.771Z,97264.04
2019-02-10T23:23:40.359Z,97263.02
2019-02-10T23:26:11.800Z,97256.78
2019-02-10T23:28:43.367Z,97256.45
2019-02-10T23:31:14.848Z,97250.00
2019-02-10T23:33:46.299Z,97250.19
2019-02-10T23:36:17.730Z,97248.63
2019-02-10T23:38:49.307Z,97247.72
2019-02-10T23:41:22.358Z,97238.02
2019-02-10T23:43:53.970Z,97241.91
2019-02-10T23:46:25.487Z,97245.92
2019-02-10T23:48:57.145Z,97246.98
2019-02-10T23:51:28.637Z,97239.61
2019-02-10T23:54:01.245Z,97243.52
2019-02-10T23:56:32.787Z,97240.09
2019-02-10T23:59:04.329Z,97236.63
